Pagina principale
METAR-TAF:

METAR-TAF

Aeroporti :

Aeroporto di Perugia

Perugia, Italia

latitudine: 43-05N, longitudine: 012-30E, altezza: 208 m

Osservazione

Il bollettino è stato emesso 13 minuti fa, alle 16:20 UTC
Vento 5 kt da ovest
Temperature 25°C
Umidità 57%
Pressione 1012 hPa
Visibilità 10 km o più

METAR: LIRZ 131620Z AUTO 28005KT 9999 SCT069/// BKN088/// 25/16 Q1012

Ora: 18:33 (16:33 UTC)

Previsione

Il bollettino è stato emesso 5 ore e 33 minuti fa, alle 11:00 UTC
Previsione valida dal 13 alle 12 UTC al 14 alle 12 UTC
Vento 10 kt da nord-est
Visibilità 10 km o più
Poco nuvoloso ad un'altezza di 3000 ft
Evoluzione graduale
dal 13 alle 18 UTC al 13 alle 20 UTC
Vento 5 kt da direzioni variabili

TAF: LIRZ 131100Z 1312/1412 04010KT 9999 FEW030 BECMG 1318/1320 VRB05KT

Osservazioni e previsioni meteorologiche di più di 4000 aeroporti (messaggi METAR e TAF).

Le stazioni disponibili sono rappresentate dai dischi gialli e rossi sulla carta.

Puntare il mouse per vedere il nome della stazione.

Clicca sopra per visualizzare le osservazioni e previsioni meteorologiche.

Per cambiare la mappa : fare clic sui pulsanti verdi con una croce nera per ingrandire, il pulsante verde con un trattino per diminuire, o sulla freccia verde per le mappe adiacenti.


METAR-TAF: